createdAt,value
2023-02-13T00:01:12.974Z,102533.66
2023-02-13T00:06:18.424Z,102526.88
2023-02-13T00:11:22.939Z,102524.38
2023-02-13T00:16:31.004Z,102521.84
2023-02-13T00:21:35.090Z,102524.50
2023-02-13T00:26:40.631Z,102521.13
2023-02-13T00:31:47.434Z,102509.84
2023-02-13T00:36:55.516Z,102513.41
2023-02-13T00:42:00.329Z,102514.47
2023-02-13T00:47:12.270Z,102517.00
2023-02-13T00:52:17.450Z,102509.25
2023-02-13T00:57:24.717Z,102513.63
2023-02-13T01:02:30.801Z,102515.44
2023-02-13T01:07:34.847Z,102505.09
2023-02-13T01:12:43.035Z,102511.19
2023-02-13T01:17:55.007Z,102519.03
2023-02-13T01:23:02.185Z,102527.78
2023-02-13T01:28:08.480Z,102520.03
2023-02-13T01:33:17.405Z,102514.84
2023-02-13T01:38:23.209Z,102517.47
2023-02-13T01:43:45.652Z,102516.69
2023-02-13T01:48:56.508Z,102502.00
2023-02-13T01:54:05.552Z,102502.91
2023-02-13T01:59:19.629Z,102504.69
2023-02-13T02:04:29.385Z,102498.75
2023-02-13T02:09:39.649Z,102502.25
2023-02-13T02:14:45.637Z,102494.53
2023-02-13T02:20:03.630Z,102489.22
2023-02-13T02:25:42.347Z,102491.00
2023-02-13T02:31:25.706Z,102481.53
2023-02-13T02:36:46.196Z,102480.00
2023-02-13T02:42:00.378Z,102473.06
2023-02-13T02:47:28.919Z,102479.22
2023-02-13T02:52:45.975Z,102481.91
2023-02-13T02:58:15.643Z,102485.56
2023-02-13T03:03:40.768Z,102491.69
2023-02-13T03:09:11.892Z,102494.38
2023-02-13T03:14:21.694Z,102488.47
2023-02-13T03:20:05.089Z,102502.31
2023-02-13T03:25:34.744Z,102493.78
2023-02-13T03:30:58.823Z,102494.69
2023-02-13T03:36:29.177Z,102492.09
2023-02-13T03:41:42.854Z,102493.06
2023-02-13T03:46:50.858Z,102498.41
2023-02-13T03:52:02.576Z,102506.34
2023-02-13T03:57:26.444Z,102507.06
2023-02-13T04:02:35.334Z,102510.88
2023-02-13T04:07:41.153Z,102514.28
2023-02-13T04:12:56.216Z,102506.44
2023-02-13T04:18:10.611Z,102502.22
2023-02-13T04:23:17.416Z,102502.94
2023-02-13T04:28:28.493Z,102506.34
2023-02-13T04:33:32.038Z,102503.84
2023-02-13T04:38:37.026Z,102506.53
2023-02-13T04:43:46.262Z,102506.59
2023-02-13T04:48:56.720Z,102518.84
2023-02-13T04:54:04.594Z,102504.09
2023-02-13T04:59:13.685Z,102507.75
2023-02-13T05:04:34.370Z,102506.06
2023-02-13T05:09:43.709Z,102508.84
2023-02-13T05:14:51.822Z,102504.50
2023-02-13T05:19:56.465Z,102500.09
2023-02-13T05:25:01.609Z,102517.41
2023-02-13T05:30:32.341Z,102508.66
2023-02-13T05:35:40.352Z,102505.19
2023-02-13T05:40:46.641Z,102491.31
2023-02-13T05:46:03.774Z,102497.38
2023-02-13T05:51:09.386Z,102494.06
2023-02-13T05:56:22.318Z,102504.53
2023-02-13T06:01:27.933Z,102503.81
2023-02-13T06:06:33.049Z,102506.50
2023-02-13T06:11:37.624Z,102501.59
2023-02-13T06:16:46.981Z,102493.75
2023-02-13T06:21:59.806Z,102496.41
2023-02-13T06:27:07.899Z,102505.88
2023-02-13T06:32:20.715Z,102497.38
2023-02-13T06:37:32.843Z,102502.59
2023-02-13T06:42:37.180Z,102503.31
2023-02-13T06:47:53.617Z,102509.41
2023-02-13T06:53:00.911Z,102505.94
2023-02-13T06:58:11.233Z,102512.00
2023-02-13T07:03:19.849Z,102516.13
2023-02-13T07:08:25.404Z,102526.44
2023-02-13T07:13:33.091Z,102529.66
2023-02-13T07:18:44.778Z,102524.34
2023-02-13T07:23:51.099Z,102529.44
2023-02-13T07:29:11.195Z,102539.78
2023-02-13T07:34:21.712Z,102538.66
2023-02-13T07:39:27.424Z,102538.47
2023-02-13T07:44:35.520Z,102543.44
2023-02-13T07:49:47.365Z,102551.09
2023-02-13T07:54:55.078Z,102546.66
2023-02-13T08:00:00.590Z,102552.34
2023-02-13T08:05:08.999Z,102546.16
2023-02-13T08:10:46.093Z,102558.28
2023-02-13T08:15:51.424Z,102564.16
2023-02-13T08:20:59.027Z,102564.84
2023-02-13T08:26:10.442Z,102558.59
2023-02-13T08:31:22.311Z,102555.06
2023-02-13T08:36:28.251Z,102559.19
2023-02-13T08:41:37.167Z,102553.69
2023-02-13T08:46:42.197Z,102559.78
2023-02-13T08:52:02.222Z,102559.63
2023-02-13T08:57:07.621Z,102561.28
2023-02-13T09:02:16.275Z,102562.75
2023-02-13T09:07:25.480Z,102561.66
2023-02-13T09:12:29.595Z,102570.66
2023-02-13T09:17:37.118Z,102573.59
2023-02-13T09:22:43.609Z,102578.97
2023-02-13T09:27:53.791Z,102579.59
2023-02-13T09:33:04.241Z,102574.13
2023-02-13T09:38:18.153Z,102573.00
2023-02-13T09:43:36.893Z,102579.59
2023-02-13T09:48:45.733Z,102581.88
2023-02-13T09:53:58.442Z,102579.28
2023-02-13T09:59:09.696Z,102581.84
2023-02-13T10:04:32.610Z,102581.06
2023-02-13T10:09:43.902Z,102587.91
2023-02-13T10:15:04.587Z,102584.22
2023-02-13T10:20:23.903Z,102575.28
2023-02-13T10:25:34.599Z,102567.44
2023-02-13T10:30:58.910Z,102568.13
2023-02-13T10:36:10.567Z,102570.72
2023-02-13T10:41:30.321Z,102571.19
2023-02-13T10:46:45.321Z,102556.00
2023-02-13T10:51:59.916Z,102544.16
2023-02-13T10:57:21.259Z,102542.88
2023-02-13T11:02:30.690Z,102538.94
2023-02-13T11:07:39.498Z,102528.94
2023-02-13T11:12:53.557Z,102530.75
2023-02-13T11:18:18.544Z,102520.28
2023-02-13T11:23:38.268Z,102527.19
2023-02-13T11:28:52.743Z,102524.38
2023-02-13T11:33:59.849Z,102513.16
2023-02-13T11:39:13.253Z,102521.03
2023-02-13T11:44:28.537Z,102526.38
2023-02-13T11:49:36.327Z,102519.44
2023-02-13T11:54:45.020Z,102515.03
2023-02-13T11:59:59.143Z,102514.75
2023-02-13T12:05:24.961Z,102516.34
2023-02-13T12:10:37.621Z,102523.06
2023-02-13T12:15:53.272Z,102517.94
2023-02-13T12:21:12.045Z,102514.00
2023-02-13T12:26:37.250Z,102504.41
2023-02-13T12:37:45.592Z,102495.19
2023-02-13T12:43:02.711Z,102490.94
2023-02-13T12:48:17.057Z,102483.34
2023-02-13T12:53:37.545Z,102480.44
2023-02-13T12:59:00.805Z,102472.63
2023-02-13T13:04:17.300Z,102468.44
2023-02-13T13:09:42.384Z,102471.03
2023-02-13T13:14:54.951Z,102471.19
2023-02-13T13:20:07.421Z,102463.47
2023-02-13T13:25:22.275Z,102462.34
2023-02-13T13:30:29.650Z,102459.25
2023-02-13T13:35:36.470Z,102466.34
2023-02-13T13:46:16.652Z,102457.09
2023-02-13T13:51:21.534Z,102459.69
2023-02-13T13:56:24.776Z,102457.56
2023-02-13T14:01:31.667Z,102455.63
2023-02-13T14:07:07.341Z,102450.31
2023-02-13T14:12:39.736Z,102453.88
2023-02-13T14:17:54.805Z,102448.84
2023-02-13T14:23:07.345Z,102451.94
2023-02-13T14:28:22.498Z,102461.69
2023-02-13T14:33:32.571Z,102459.41
2023-02-13T14:38:37.649Z,102462.50
2023-02-13T14:43:54.849Z,102454.66
2023-02-13T14:49:03.621Z,102452.13
2023-02-13T14:54:17.036Z,102460.03
2023-02-13T14:59:24.513Z,102451.56
2023-02-13T15:04:32.536Z,102442.09
2023-02-13T15:09:40.098Z,102432.09
2023-02-13T15:14:43.173Z,102432.00
2023-02-13T15:19:51.401Z,102422.72
2023-02-13T15:24:54.710Z,102423.34
2023-02-13T15:30:00.811Z,102419.13
2023-02-13T15:35:22.794Z,102414.91
2023-02-13T15:40:28.255Z,102407.25
2023-02-13T15:45:32.255Z,102400.63
2023-02-13T15:50:37.368Z,102411.09
2023-02-13T15:55:40.504Z,102406.81
2023-02-13T16:00:44.879Z,102393.06
2023-02-13T16:05:51.040Z,102394.19
2023-02-13T16:11:19.089Z,102392.00
2023-02-13T16:16:24.090Z,102394.91
2023-02-13T16:21:31.588Z,102396.16
2023-02-13T16:26:39.322Z,102401.38
2023-02-13T16:31:42.659Z,102398.78
2023-02-13T16:36:47.307Z,102399.91
2023-02-13T16:41:50.936Z,102411.13
2023-02-13T16:46:57.728Z,102405.19
2023-02-13T16:52:12.997Z,102405.53
2023-02-13T16:57:23.622Z,102410.88
2023-02-13T17:02:28.260Z,102419.78
2023-02-13T17:07:37.350Z,102421.59
2023-02-13T17:12:40.875Z,102425.34
2023-02-13T17:17:45.143Z,102417.78
2023-02-13T17:22:52.250Z,102425.66
2023-02-13T17:27:57.265Z,102430.75
2023-02-13T17:33:05.859Z,102428.28
2023-02-13T17:38:12.234Z,102424.84
2023-02-13T17:43:17.062Z,102422.22
2023-02-13T17:48:25.992Z,102415.31
2023-02-13T17:53:31.805Z,102405.97
2023-02-13T17:58:36.436Z,102413.09
2023-02-13T18:03:40.526Z,102414.97
2023-02-13T18:08:45.196Z,102408.97
2023-02-13T18:13:49.006Z,102417.84
2023-02-13T18:19:00.509Z,102413.59
2023-02-13T18:24:06.191Z,102416.16
2023-02-13T18:29:09.291Z,102422.34
2023-02-13T18:34:12.778Z,102412.97
2023-02-13T18:39:18.053Z,102404.50
2023-02-13T18:44:39.618Z,102408.56
2023-02-13T18:49:45.620Z,102397.19
2023-02-13T18:54:51.628Z,102404.09
2023-02-13T18:59:55.142Z,102401.50
2023-02-13T19:05:07.601Z,102400.28
2023-02-13T19:10:12.926Z,102412.19
2023-02-13T19:15:16.638Z,102413.69
2023-02-13T19:20:32.590Z,102414.19
2023-02-13T19:25:40.302Z,102406.88
2023-02-13T19:30:47.831Z,102407.34
2023-02-13T19:35:58.802Z,102406.78
2023-02-13T19:41:05.946Z,102413.28
2023-02-13T19:46:22.059Z,102411.97
2023-02-13T19:51:55.097Z,102401.06
2023-02-13T19:57:01.609Z,102410.13
2023-02-13T20:02:21.604Z,102397.38
2023-02-13T20:07:28.837Z,102395.94
2023-02-13T20:12:37.142Z,102394.50
2023-02-13T20:17:49.356Z,102401.63
2023-02-13T20:22:55.199Z,102393.25
2023-02-13T20:28:12.986Z,102390.00
2023-02-13T20:33:26.911Z,102405.81
2023-02-13T20:38:30.581Z,102408.69
2023-02-13T20:43:35.159Z,102398.56
2023-02-13T20:48:38.386Z,102396.19
2023-02-13T20:53:42.973Z,102409.38
2023-02-13T20:58:49.209Z,102401.53
2023-02-13T21:03:54.963Z,102408.44
2023-02-13T21:08:58.260Z,102409.28
2023-02-13T21:14:03.669Z,102403.03
2023-02-13T21:19:08.686Z,102405.50
2023-02-13T21:24:14.862Z,102409.56
2023-02-13T21:29:19.707Z,102408.59
2023-02-13T21:34:22.833Z,102414.56
2023-02-13T21:39:26.019Z,102411.75
2023-02-13T21:44:30.568Z,102419.25
2023-02-13T21:49:33.724Z,102423.47
2023-02-13T21:54:36.795Z,102424.97
2023-02-13T21:59:41.493Z,102418.69
2023-02-13T22:04:44.858Z,102420.25
2023-02-13T22:09:48.080Z,102426.97
2023-02-13T22:14:52.643Z,102418.13
2023-02-13T22:19:55.905Z,102421.53
2023-02-13T22:24:59.096Z,102426.50
2023-02-13T22:30:03.837Z,102435.09
2023-02-13T22:35:09.589Z,102439.28
2023-02-13T22:40:13.378Z,102444.22
2023-02-13T22:45:18.256Z,102441.44
2023-02-13T22:50:21.634Z,102444.72
2023-02-13T22:55:24.794Z,102451.56
2023-02-13T23:00:30.030Z,102455.22
2023-02-13T23:05:33.139Z,102448.00
2023-02-13T23:10:36.419Z,102454.00
2023-02-13T23:15:47.229Z,102453.09
2023-02-13T23:20:50.525Z,102450.44
2023-02-13T23:25:53.651Z,102442.59
2023-02-13T23:30:59.052Z,102442.78
2023-02-13T23:36:02.460Z,102441.44
2023-02-13T23:41:09.121Z,102439.03
2023-02-13T23:46:13.791Z,102438.91
2023-02-13T23:51:18.533Z,102445.88
2023-02-13T23:56:21.798Z,102444.94
